createdAt,value
2023-04-06T00:00:34.989Z,5.70
2023-04-06T00:03:01.615Z,6.80
2023-04-06T00:05:29.185Z,6.33
2023-04-06T00:07:57.048Z,6.83
2023-04-06T00:10:23.587Z,6.27
2023-04-06T00:12:50.124Z,6.03
2023-04-06T00:15:16.891Z,6.00
2023-04-06T00:17:43.693Z,5.63
2023-04-06T00:20:10.688Z,5.40
2023-04-06T00:22:37.292Z,5.70
2023-04-06T00:25:04.099Z,6.60
2023-04-06T00:27:30.838Z,6.33
2023-04-06T00:29:57.463Z,6.43
2023-04-06T00:32:24.236Z,5.83
2023-04-06T00:34:50.827Z,6.07
2023-04-06T00:37:17.423Z,6.80
2023-04-06T00:39:44.062Z,6.40
2023-04-06T00:42:14.702Z,5.53
2023-04-06T00:44:44.667Z,6.40
2023-04-06T00:47:11.337Z,7.00
2023-04-06T00:49:38.233Z,6.03
2023-04-06T00:52:04.922Z,6.30
2023-04-06T00:54:31.907Z,5.67
2023-04-06T00:56:58.925Z,6.47
2023-04-06T00:59:26.155Z,6.00
2023-04-06T01:01:52.877Z,10.77
2023-04-06T01:04:19.625Z,5.90
2023-04-06T01:06:46.649Z,6.40
2023-04-06T01:09:13.280Z,6.77
2023-04-06T01:11:39.762Z,7.07
2023-04-06T01:14:06.763Z,6.07
2023-04-06T01:16:33.438Z,5.93
2023-04-06T01:18:59.985Z,6.70
2023-04-06T01:21:26.804Z,6.63
2023-04-06T01:23:53.386Z,7.30
2023-04-06T01:26:19.891Z,7.60
2023-04-06T01:28:46.573Z,6.60
2023-04-06T01:31:13.229Z,7.50
2023-04-06T01:33:39.833Z,6.50
2023-04-06T01:36:06.793Z,7.10
2023-04-06T01:38:33.463Z,7.17
2023-04-06T01:41:00.109Z,5.90
2023-04-06T01:43:26.728Z,8.40
2023-04-06T01:45:53.514Z,7.17
2023-04-06T01:48:20.127Z,7.43
2023-04-06T01:50:46.779Z,6.33
2023-04-06T01:53:13.396Z,7.47
2023-04-06T01:55:40.013Z,5.93
2023-04-06T01:58:06.573Z,8.07
2023-04-06T02:00:33.277Z,6.13
2023-04-06T02:03:00.054Z,5.90
2023-04-06T02:05:27.078Z,6.80
2023-04-06T02:07:53.681Z,6.80
2023-04-06T02:10:20.642Z,6.67
2023-04-06T02:12:47.110Z,6.00
2023-04-06T02:15:14.457Z,6.13
2023-04-06T02:17:41.691Z,7.23
2023-04-06T02:20:09.135Z,5.73
2023-04-06T02:22:36.290Z,6.83
2023-04-06T02:25:03.476Z,6.13
2023-04-06T02:27:30.085Z,7.07
2023-04-06T02:29:56.551Z,6.10
2023-04-06T02:32:23.266Z,6.50
2023-04-06T02:34:49.782Z,5.97
2023-04-06T02:37:16.538Z,6.60
2023-04-06T02:39:43.091Z,7.03
2023-04-06T02:42:09.840Z,6.97
2023-04-06T02:44:36.312Z,7.10
2023-04-06T02:47:02.834Z,6.80
2023-04-06T02:49:29.344Z,6.43
2023-04-06T02:51:55.916Z,6.30
2023-04-06T02:54:22.553Z,5.87
2023-04-06T02:56:49.269Z,6.90
2023-04-06T02:59:16.067Z,6.80
2023-04-06T03:01:42.835Z,5.83
2023-04-06T03:04:09.361Z,5.70
2023-04-06T03:06:36.161Z,6.00
2023-04-06T03:09:03.164Z,4.43
2023-04-06T03:11:29.645Z,5.47
2023-04-06T03:13:56.271Z,5.53
2023-04-06T03:16:22.896Z,6.00
2023-04-06T03:18:49.807Z,6.97
2023-04-06T03:21:16.461Z,5.80
2023-04-06T03:23:43.707Z,5.97
2023-04-06T03:26:11.198Z,6.03
2023-04-06T03:28:37.733Z,6.27
2023-04-06T03:31:04.442Z,5.80
2023-04-06T03:33:30.993Z,5.83
2023-04-06T03:35:57.577Z,5.67
2023-04-06T03:38:24.133Z,5.00
2023-04-06T03:40:51.124Z,6.13
2023-04-06T03:43:17.750Z,5.57
2023-04-06T03:45:44.256Z,6.30
2023-04-06T03:48:11.039Z,5.40
2023-04-06T03:50:37.560Z,5.90
2023-04-06T03:53:04.193Z,5.80
2023-04-06T03:55:31.063Z,5.27
2023-04-06T03:57:57.827Z,5.23
2023-04-06T04:00:24.755Z,7.70
2023-04-06T04:02:51.856Z,7.63
2023-04-06T04:05:18.603Z,6.63
2023-04-06T04:07:45.358Z,6.97
2023-04-06T04:10:12.109Z,6.60
2023-04-06T04:12:38.689Z,5.60
2023-04-06T04:15:06.171Z,6.77
2023-04-06T04:17:32.823Z,6.30
2023-04-06T04:19:59.380Z,5.83
2023-04-06T04:22:25.865Z,7.13
2023-04-06T04:24:52.604Z,5.70
2023-04-06T04:27:19.101Z,6.60
2023-04-06T04:29:45.932Z,6.63
2023-04-06T04:32:12.518Z,5.67
2023-04-06T04:34:41.439Z,6.87
2023-04-06T04:37:08.127Z,7.30
2023-04-06T04:39:34.693Z,6.47
2023-04-06T04:42:01.284Z,5.70
2023-04-06T04:44:27.789Z,6.17
2023-04-06T04:46:54.335Z,7.90
2023-04-06T04:49:20.984Z,8.47
2023-04-06T04:51:47.519Z,6.90
2023-04-06T04:54:14.127Z,7.17
2023-04-06T04:56:40.994Z,23.50
2023-04-06T04:59:07.817Z,19.70
2023-04-06T05:01:47.401Z,12.57
2023-04-06T05:04:21.623Z,8.43
2023-04-06T05:06:48.220Z,7.13
2023-04-06T05:09:14.849Z,6.50
2023-04-06T05:11:41.375Z,6.53
2023-04-06T05:14:07.879Z,6.00
2023-04-06T05:16:35.385Z,6.50
2023-04-06T05:19:02.001Z,8.03
2023-04-06T05:21:29.307Z,7.23
2023-04-06T05:23:55.904Z,7.43
2023-04-06T05:26:22.575Z,7.90
2023-04-06T05:28:49.153Z,7.50
2023-04-06T05:31:17.286Z,7.27
2023-04-06T05:33:44.479Z,7.20
2023-04-06T05:36:12.552Z,6.73
2023-04-06T05:38:40.973Z,7.50
2023-04-06T05:41:07.488Z,7.20
2023-04-06T05:43:34.036Z,7.20
2023-04-06T05:46:00.753Z,7.70
2023-04-06T05:48:27.437Z,9.10
2023-04-06T05:50:54.332Z,9.50
2023-04-06T05:53:22.184Z,9.97
2023-04-06T05:55:48.715Z,9.00
2023-04-06T05:58:15.780Z,8.03
2023-04-06T06:00:43.616Z,8.20
2023-04-06T06:03:10.973Z,8.50
2023-04-06T06:05:37.741Z,9.00
2023-04-06T06:08:04.406Z,8.90
2023-04-06T06:10:30.996Z,8.03
2023-04-06T06:12:57.709Z,8.00
2023-04-06T06:15:24.529Z,7.43
2023-04-06T06:17:51.341Z,7.43
2023-04-06T06:20:18.093Z,7.90
2023-04-06T06:22:44.772Z,8.07
2023-04-06T06:25:11.372Z,7.90
2023-04-06T06:27:38.105Z,8.03
2023-04-06T06:30:06.416Z,7.07
2023-04-06T06:32:33.219Z,8.17
2023-04-06T06:34:59.836Z,8.50
2023-04-06T06:37:27.193Z,8.83
2023-04-06T06:39:54.764Z,9.23
2023-04-06T06:42:21.324Z,10.87
2023-04-06T06:44:47.916Z,8.73
2023-04-06T06:47:14.494Z,8.60
2023-04-06T06:49:41.432Z,10.00
2023-04-06T06:52:08.054Z,9.87
2023-04-06T06:54:34.650Z,9.00
2023-04-06T06:57:01.465Z,8.57
2023-04-06T06:59:28.170Z,8.43
2023-04-06T07:01:54.729Z,8.47
2023-04-06T07:04:21.635Z,8.17
2023-04-06T07:06:48.217Z,7.97
2023-04-06T07:09:14.857Z,9.00
2023-04-06T07:11:41.459Z,7.93
2023-04-06T07:14:08.269Z,7.53
2023-04-06T07:16:35.230Z,8.30
2023-04-06T07:19:01.912Z,8.90
2023-04-06T07:21:28.579Z,8.23
2023-04-06T07:23:55.345Z,7.87
2023-04-06T07:26:21.908Z,8.83
2023-04-06T07:28:48.466Z,8.10
2023-04-06T07:31:15.155Z,9.37
2023-04-06T07:33:41.778Z,9.67
2023-04-06T07:36:08.635Z,7.97
2023-04-06T07:38:35.665Z,9.43
2023-04-06T07:41:04.879Z,8.47
2023-04-06T07:43:31.911Z,8.43
2023-04-06T07:45:58.696Z,8.47
2023-04-06T07:48:25.628Z,8.77
2023-04-06T07:50:52.188Z,8.47
2023-04-06T07:53:18.831Z,7.80
2023-04-06T07:55:45.371Z,8.00
2023-04-06T07:58:12.005Z,7.60
2023-04-06T08:00:38.601Z,7.83
2023-04-06T08:03:05.278Z,8.90
2023-04-06T08:05:31.978Z,7.37
2023-04-06T08:07:58.707Z,7.20
2023-04-06T08:10:25.392Z,6.57
2023-04-06T08:12:52.240Z,9.03
2023-04-06T08:15:19.309Z,8.70
2023-04-06T08:17:46.195Z,8.37
2023-04-06T08:20:12.905Z,8.90
2023-04-06T08:22:39.489Z,8.20
2023-04-06T08:25:06.509Z,7.80
2023-04-06T08:27:33.168Z,7.80
2023-04-06T08:29:59.703Z,7.40
2023-04-06T08:32:26.730Z,7.33
2023-04-06T08:34:56.799Z,7.67
2023-04-06T08:37:23.591Z,8.27
2023-04-06T08:39:50.561Z,7.57
2023-04-06T08:42:21.848Z,9.03
2023-04-06T08:44:50.437Z,8.40
2023-04-06T08:47:17.072Z,8.83
2023-04-06T08:49:44.621Z,8.60
2023-04-06T08:52:12.060Z,8.90
2023-04-06T08:54:39.452Z,8.53
2023-04-06T08:57:07.018Z,7.83
2023-04-06T08:59:33.923Z,7.93
2023-04-06T09:02:04.694Z,8.57
2023-04-06T09:04:31.872Z,8.20
2023-04-06T09:06:58.495Z,8.10
2023-04-06T09:09:26.073Z,8.70
2023-04-06T09:11:53.182Z,8.93
2023-04-06T09:14:40.501Z,9.17
2023-04-06T09:17:07.309Z,7.90
2023-04-06T09:19:33.998Z,8.67
2023-04-06T09:22:05.447Z,8.00
2023-04-06T09:24:52.094Z,7.63
2023-04-06T09:27:19.467Z,8.97
2023-04-06T09:29:46.071Z,7.47
2023-04-06T09:32:13.235Z,7.03
2023-04-06T09:34:40.405Z,8.30
2023-04-06T09:37:16.957Z,8.20
2023-04-06T09:39:47.017Z,8.27
2023-04-06T09:42:34.049Z,8.33
2023-04-06T09:45:00.672Z,8.40
2023-04-06T09:47:29.508Z,8.80
2023-04-06T09:50:00.749Z,7.73
2023-04-06T09:52:39.184Z,8.60
2023-04-06T09:55:06.503Z,8.10
2023-04-06T09:57:46.920Z,7.70
2023-04-06T10:00:15.633Z,7.50
2023-04-06T10:03:12.429Z,8.17
2023-04-06T10:05:44.421Z,7.40
2023-04-06T10:08:11.652Z,9.23
2023-04-06T10:10:38.808Z,8.43
2023-04-06T10:13:05.772Z,8.20
2023-04-06T10:15:33.018Z,8.83
2023-04-06T10:18:00.352Z,7.53
2023-04-06T10:20:26.949Z,8.20
2023-04-06T10:23:00.776Z,7.93
2023-04-06T10:25:29.347Z,7.57
2023-04-06T10:28:03.514Z,8.03
2023-04-06T10:30:30.790Z,8.60
2023-04-06T10:32:57.574Z,9.10
2023-04-06T10:35:25.123Z,9.30
2023-04-06T10:38:03.500Z,15.23
2023-04-06T10:40:32.518Z,9.33
2023-04-06T10:43:22.882Z,8.50
2023-04-06T10:45:57.876Z,7.60
2023-04-06T10:48:25.181Z,8.47
2023-04-06T10:50:55.057Z,9.23
2023-04-06T10:53:26.510Z,8.30
2023-04-06T10:55:57.137Z,9.30
2023-04-06T10:58:28.213Z,8.13
2023-04-06T11:00:56.337Z,8.47
2023-04-06T11:03:23.282Z,7.53
2023-04-06T11:05:50.956Z,9.10
2023-04-06T11:08:28.052Z,8.37
2023-04-06T11:11:07.595Z,9.20
2023-04-06T11:13:49.344Z,9.33
2023-04-06T11:16:25.490Z,8.63
2023-04-06T11:18:52.134Z,9.07
2023-04-06T11:21:20.025Z,9.83
2023-04-06T11:23:46.738Z,8.50
2023-04-06T11:26:14.949Z,8.50
2023-04-06T11:28:44.059Z,9.20
2023-04-06T11:31:12.536Z,9.60
2023-04-06T11:33:39.872Z,8.40
2023-04-06T11:36:07.303Z,8.40
2023-04-06T11:38:34.066Z,8.50
2023-04-06T11:41:02.517Z,10.70
2023-04-06T11:43:32.444Z,9.03
2023-04-06T11:46:07.663Z,9.43
2023-04-06T11:48:45.445Z,8.60
2023-04-06T11:51:12.100Z,9.13
2023-04-06T11:53:47.325Z,8.33
2023-04-06T11:56:32.754Z,8.83
2023-04-06T11:59:01.069Z,9.23
2023-04-06T12:01:27.920Z,8.60
2023-04-06T12:03:54.913Z,8.47
2023-04-06T12:06:21.707Z,8.53
2023-04-06T12:08:48.311Z,8.37
2023-04-06T12:11:14.948Z,8.70
2023-04-06T12:13:41.532Z,9.07
2023-04-06T12:16:08.313Z,7.77
2023-04-06T12:18:35.022Z,8.90
2023-04-06T12:21:01.656Z,8.90
2023-04-06T12:23:28.389Z,8.57
2023-04-06T12:25:55.712Z,8.77
2023-04-06T12:28:24.167Z,8.03
2023-04-06T12:30:51.732Z,8.13
2023-04-06T12:33:18.340Z,8.37
2023-04-06T12:35:45.367Z,8.70
2023-04-06T12:38:12.441Z,6.40
2023-04-06T12:40:40.235Z,8.57
2023-04-06T12:43:07.025Z,8.53
2023-04-06T12:45:33.706Z,8.57
2023-04-06T12:48:00.717Z,7.97
2023-04-06T12:50:27.566Z,8.53
2023-04-06T12:52:54.404Z,9.17
2023-04-06T12:55:22.018Z,8.30
2023-04-06T12:57:48.765Z,8.07
2023-04-06T13:00:16.312Z,8.10
2023-04-06T13:02:48.107Z,7.37
2023-04-06T13:05:19.957Z,7.03
2023-04-06T13:07:47.829Z,8.10
2023-04-06T13:10:14.632Z,7.60
2023-04-06T13:12:41.382Z,7.00
2023-04-06T13:15:08.395Z,7.10
2023-04-06T13:17:35.130Z,7.90
2023-04-06T13:20:01.823Z,8.10
2023-04-06T13:22:28.406Z,7.77
2023-04-06T13:24:55.502Z,8.07
2023-04-06T13:27:22.302Z,8.03
2023-04-06T13:29:48.873Z,7.03
2023-04-06T13:32:15.674Z,7.90
2023-04-06T13:34:45.837Z,8.23
2023-04-06T13:37:14.439Z,9.30
2023-04-06T13:39:41.142Z,8.23
2023-04-06T13:42:07.945Z,8.80
2023-04-06T13:44:34.553Z,7.43
2023-04-06T13:47:01.131Z,8.37
2023-04-06T13:49:27.933Z,7.83
2023-04-06T13:51:54.897Z,9.43
2023-04-06T13:54:21.612Z,7.87
2023-04-06T13:56:48.135Z,8.80
2023-04-06T13:59:14.901Z,7.20
2023-04-06T14:01:41.902Z,8.33
2023-04-06T14:04:08.740Z,7.73
2023-04-06T14:06:35.427Z,10.20
2023-04-06T14:09:02.203Z,9.40
2023-04-06T14:11:29.042Z,14.00
2023-04-06T14:13:58.028Z,8.27
2023-04-06T14:16:25.880Z,8.70
2023-04-06T14:18:53.378Z,7.80
2023-04-06T14:21:20.205Z,8.27
2023-04-06T14:23:47.656Z,12.07
2023-04-06T14:26:15.230Z,8.47
2023-04-06T14:28:42.412Z,8.27
2023-04-06T14:31:14.342Z,11.67
2023-04-06T14:33:41.134Z,14.80
2023-04-06T14:36:08.866Z,8.23
2023-04-06T14:38:35.608Z,8.97
2023-04-06T14:41:02.400Z,9.00
2023-04-06T14:43:29.060Z,10.27
2023-04-06T14:45:55.853Z,8.43
2023-04-06T14:48:22.382Z,12.50
2023-04-06T14:50:58.138Z,9.67
2023-04-06T14:53:25.434Z,9.10
2023-04-06T14:55:55.632Z,18.60
2023-04-06T14:58:23.905Z,14.50
2023-04-06T15:00:51.307Z,25.77
2023-04-06T15:03:18.081Z,8.63
2023-04-06T15:05:45.176Z,12.27
2023-04-06T15:08:12.707Z,7.67
2023-04-06T15:10:39.232Z,8.90
2023-04-06T15:13:05.934Z,11.83
2023-04-06T15:15:32.750Z,9.50
2023-04-06T15:17:59.730Z,11.20
2023-04-06T15:20:26.357Z,10.07
2023-04-06T15:22:52.985Z,11.07
2023-04-06T15:25:19.674Z,12.90
2023-04-06T15:27:46.269Z,11.20
2023-04-06T15:30:13.242Z,9.63
2023-04-06T15:32:39.994Z,11.43
2023-04-06T15:35:11.129Z,18.90
2023-04-06T15:37:38.857Z,9.90
2023-04-06T15:40:06.424Z,8.10
2023-04-06T15:42:32.979Z,9.53
2023-04-06T15:44:59.509Z,9.03
2023-04-06T15:47:26.189Z,9.83
2023-04-06T15:49:52.886Z,11.80
2023-04-06T15:52:19.485Z,9.30
2023-04-06T15:54:47.624Z,11.23
2023-04-06T15:57:14.969Z,10.80
2023-04-06T15:59:41.452Z,13.40
2023-04-06T16:02:08.191Z,11.63
2023-04-06T16:04:34.913Z,10.83
2023-04-06T16:07:01.714Z,10.67
2023-04-06T16:09:28.295Z,10.33
2023-04-06T16:11:55.052Z,10.10
2023-04-06T16:14:21.907Z,9.47
2023-04-06T16:16:49.980Z,8.67
2023-04-06T16:19:16.823Z,9.17
2023-04-06T16:21:43.315Z,10.70
2023-04-06T16:24:09.876Z,12.07
2023-04-06T16:26:36.948Z,11.73
2023-04-06T16:29:03.637Z,11.93
2023-04-06T16:31:30.650Z,11.80
2023-04-06T16:33:57.811Z,11.57
2023-04-06T16:36:28.104Z,11.90
2023-04-06T16:38:58.639Z,11.30
2023-04-06T16:41:27.659Z,10.93
2023-04-06T16:43:57.177Z,10.23
2023-04-06T16:46:34.608Z,9.60
2023-04-06T16:49:06.947Z,9.20
2023-04-06T16:51:33.517Z,9.23
2023-04-06T16:54:00.312Z,8.07
2023-04-06T16:56:27.574Z,9.00
2023-04-06T16:58:54.138Z,9.00
2023-04-06T17:01:22.263Z,8.93
2023-04-06T17:03:49.286Z,8.00
2023-04-06T17:06:16.021Z,7.97
2023-04-06T17:08:43.554Z,6.23
2023-04-06T17:11:10.745Z,15.83
2023-04-06T17:13:37.300Z,11.10
2023-04-06T17:16:04.155Z,7.30
2023-04-06T17:18:30.837Z,6.67
2023-04-06T17:20:58.453Z,5.80
2023-04-06T17:23:26.168Z,5.30
2023-04-06T17:25:54.445Z,5.00
2023-04-06T17:28:24.079Z,4.63
2023-04-06T17:30:50.679Z,5.10
2023-04-06T17:33:17.579Z,7.20
2023-04-06T17:35:45.132Z,6.40
2023-04-06T17:38:11.855Z,5.77
2023-04-06T17:40:38.536Z,7.37
2023-04-06T17:43:05.677Z,6.70
2023-04-06T17:45:32.380Z,6.30
2023-04-06T17:47:59.174Z,6.40
2023-04-06T17:50:26.188Z,8.80
2023-04-06T17:52:53.253Z,9.53
2023-04-06T17:55:23.092Z,7.53
2023-04-06T17:57:50.712Z,7.00
2023-04-06T18:00:20.139Z,9.63
2023-04-06T18:02:47.075Z,9.03
2023-04-06T18:05:13.801Z,9.37
2023-04-06T18:07:41.058Z,8.20
2023-04-06T18:10:08.156Z,7.83
2023-04-06T18:12:34.756Z,9.13
2023-04-06T18:15:01.440Z,8.67
2023-04-06T18:17:27.976Z,7.50
2023-04-06T18:19:54.644Z,7.70
2023-04-06T18:22:21.534Z,7.80
2023-04-06T18:24:48.086Z,6.40
2023-04-06T18:27:14.728Z,8.50
2023-04-06T18:29:44.320Z,9.50
2023-04-06T18:32:11.129Z,9.50
2023-04-06T18:34:39.395Z,9.90
2023-04-06T18:37:06.138Z,10.53
2023-04-06T18:39:32.786Z,11.23
2023-04-06T18:41:59.246Z,13.17
2023-04-06T18:44:26.029Z,13.50
2023-04-06T18:46:55.193Z,11.07
2023-04-06T18:49:22.297Z,10.40
2023-04-06T18:51:49.004Z,10.40
2023-04-06T18:54:15.965Z,10.60
2023-04-06T18:56:42.854Z,9.97
2023-04-06T18:59:09.474Z,9.50
2023-04-06T19:01:38.894Z,9.90
2023-04-06T19:04:05.649Z,9.60
2023-04-06T19:06:33.938Z,10.20
2023-04-06T19:09:02.371Z,9.60
2023-04-06T19:11:29.192Z,8.27
2023-04-06T19:13:56.731Z,7.90
2023-04-06T19:16:23.850Z,8.60
2023-04-06T19:18:53.222Z,12.27
2023-04-06T19:21:24.174Z,11.30
2023-04-06T19:23:52.635Z,13.00
2023-04-06T19:26:20.031Z,11.60
2023-04-06T19:28:47.603Z,10.60
2023-04-06T19:31:16.512Z,10.80
2023-04-06T19:33:43.838Z,11.00
2023-04-06T19:36:10.754Z,11.20
2023-04-06T19:38:37.819Z,10.93
2023-04-06T19:41:04.458Z,10.70
2023-04-06T19:43:31.421Z,10.93
2023-04-06T19:45:58.102Z,9.90
2023-04-06T19:48:24.738Z,10.40
2023-04-06T19:50:54.921Z,8.87
2023-04-06T19:53:24.578Z,8.70
2023-04-06T19:55:51.206Z,8.23
2023-04-06T19:58:18.396Z,8.40
2023-04-06T20:00:44.972Z,7.77
2023-04-06T20:03:11.702Z,9.07
2023-04-06T20:05:38.680Z,8.10
2023-04-06T20:08:05.443Z,10.20
2023-04-06T20:10:32.078Z,10.27
2023-04-06T20:13:01.178Z,9.80
2023-04-06T20:15:27.724Z,9.67
2023-04-06T20:17:54.528Z,8.80
2023-04-06T20:20:21.346Z,10.00
2023-04-06T20:22:50.325Z,9.17
2023-04-06T20:25:17.652Z,8.97
2023-04-06T20:27:47.554Z,10.10
2023-04-06T20:30:15.276Z,11.03
2023-04-06T20:32:42.106Z,11.20
2023-04-06T20:35:09.151Z,10.50
2023-04-06T20:37:37.928Z,9.77
2023-04-06T20:40:05.341Z,10.97
2023-04-06T20:42:31.964Z,12.83
2023-04-06T20:44:58.486Z,12.20
2023-04-06T20:47:25.631Z,11.00
2023-04-06T20:49:52.415Z,9.50
2023-04-06T20:52:18.934Z,9.83
2023-04-06T20:54:45.582Z,9.33
2023-04-06T20:57:12.232Z,8.50
2023-04-06T20:59:38.827Z,8.40
2023-04-06T21:02:05.803Z,9.30
2023-04-06T21:04:34.669Z,9.30
2023-04-06T21:07:07.197Z,8.70
2023-04-06T21:09:38.239Z,8.03
2023-04-06T21:12:10.649Z,9.80
2023-04-06T21:14:37.556Z,10.77
2023-04-06T21:17:04.305Z,11.10
2023-04-06T21:19:31.121Z,10.33
2023-04-06T21:21:57.660Z,13.80
2023-04-06T21:24:24.254Z,13.50
2023-04-06T21:26:51.015Z,12.23
2023-04-06T21:29:17.753Z,10.33
2023-04-06T21:31:44.524Z,9.90
2023-04-06T21:34:11.933Z,8.90
2023-04-06T21:36:39.350Z,8.63
2023-04-06T21:39:06.372Z,8.13
2023-04-06T21:41:34.544Z,7.90
2023-04-06T21:44:01.366Z,7.03
2023-04-06T21:46:28.026Z,7.30
2023-04-06T21:48:54.590Z,6.80
2023-04-06T21:51:22.432Z,6.50
2023-04-06T21:53:49.359Z,8.70
2023-04-06T21:56:23.366Z,7.90
2023-04-06T21:58:50.463Z,8.00
2023-04-06T22:01:17.783Z,8.20
2023-04-06T22:03:45.635Z,7.80
2023-04-06T22:06:12.758Z,8.43
2023-04-06T22:08:39.360Z,10.23
2023-04-06T22:11:11.345Z,9.90
2023-04-06T22:13:38.320Z,11.37
2023-04-06T22:16:05.420Z,10.27
2023-04-06T22:18:32.451Z,9.57
2023-04-06T22:20:59.168Z,8.40
2023-04-06T22:23:26.021Z,8.63
2023-04-06T22:25:53.098Z,7.80
2023-04-06T22:28:19.661Z,7.00
2023-04-06T22:30:46.288Z,6.27
2023-04-06T22:33:12.995Z,7.77
2023-04-06T22:35:39.634Z,7.40
2023-04-06T22:38:06.250Z,6.70
2023-04-06T22:40:32.913Z,7.00
2023-04-06T22:42:59.381Z,8.40
2023-04-06T22:45:26.500Z,9.10
2023-04-06T22:47:53.331Z,8.20
2023-04-06T22:50:19.947Z,8.40
2023-04-06T22:52:46.484Z,10.27
2023-04-06T22:55:13.166Z,10.80
2023-04-06T22:57:39.679Z,10.23
2023-04-06T23:00:07.060Z,9.70
2023-04-06T23:02:33.702Z,8.90
2023-04-06T23:05:00.859Z,9.33
2023-04-06T23:07:27.510Z,10.87
2023-04-06T23:09:54.107Z,10.50
2023-04-06T23:12:21.292Z,8.70
2023-04-06T23:14:47.910Z,8.50
2023-04-06T23:17:15.109Z,9.70
2023-04-06T23:19:41.829Z,8.40
2023-04-06T23:22:08.621Z,9.17
2023-04-06T23:24:35.576Z,9.70
2023-04-06T23:27:02.207Z,8.50
2023-04-06T23:29:28.803Z,7.00
2023-04-06T23:31:55.435Z,8.70
2023-04-06T23:34:21.924Z,7.87
2023-04-06T23:36:48.660Z,8.40
2023-04-06T23:39:15.765Z,7.90
2023-04-06T23:41:43.110Z,8.40
2023-04-06T23:44:09.641Z,10.13
2023-04-06T23:46:36.333Z,9.47
2023-04-06T23:49:02.910Z,8.27
2023-04-06T23:51:29.616Z,8.27
2023-04-06T23:53:56.339Z,8.50
2023-04-06T23:56:22.995Z,9.40
2023-04-06T23:58:49.656Z,8.93
